»·PEaware :: XOJ381 KSFO-KGJT

XOJ381 :: KSFO-KGJT

FLIGHT INFORMATION

Flight Status: Arrived
Operator:
XOJET
More flights by this operator :: More flights under this callsign
Pilot: Jessica F. (17029)
Aircraft: BOMBARDIER BD-100 CHALLENGER 300
(CL30)
More flights by this aircraft type
Origin: KSFO San Francisco Intl
United States
Destination: KGJT Walker
United States
More flights between these airports :: More routes between these airports
Route: +TRUNK2 TIPRE INSLO DTA JNC
File this flight plan on PilotEdge
Remarks:
Altitude:
(Current/Filed)
41,000ft
Speed:
(Current/Filed)
310kts
Departed: 22-Nov-17 09:13 AM
Arrived: 22-Nov-17 11:28 AM
Distance/Time
Traveled:
657nm/2:15
Distance/Time
To Go:
Arrived

Flight Plot

Page will automatically refresh every two minutes.

Flight plan parsing failed; only flown route is shown


Map Options




Map Legend


Flown Route
Filed Route
Departure Airport
Arrival Airport
Navaid (VOR, NDB)
Fix

Horizontal Profiles

Position Reports

Time Latitude Longitude Heading Altitude Ground
Speed
22-Nov-17 08:33 37.627664 -122.384207 294 15ft 0kts
22-Nov-17 08:34 37.627664 -122.384207 294 15ft 0kts
22-Nov-17 08:35 37.627664 -122.384207 294 15ft 0kts
22-Nov-17 08:36 37.627664 -122.384207 294 15ft 0kts
22-Nov-17 08:37 37.627664 -122.384207 294 15ft 0kts
22-Nov-17 08:38 37.627664 -122.384207 294 15ft 0kts
22-Nov-17 08:39 37.627664 -122.384207 294 15ft 0kts
22-Nov-17 08:40 37.627664 -122.384207 294 15ft 0kts
22-Nov-17 08:41 37.627664 -122.384207 294 15ft 0kts
22-Nov-17 08:42 37.627664 -122.384207 294 15ft 0kts
22-Nov-17 08:43 37.627664 -122.384207 294 15ft 0kts
22-Nov-17 08:44 37.627664 -122.384207 294 15ft 0kts
22-Nov-17 08:45 37.627664 -122.384207 294 15ft 0kts
22-Nov-17 08:46 37.627664 -122.384207 294 15ft 0kts
22-Nov-17 08:47 37.627664 -122.384207 294 15ft 0kts
22-Nov-17 08:48 37.627664 -122.384207 294 15ft 0kts
22-Nov-17 08:49 37.627664 -122.384207 294 15ft 0kts
22-Nov-17 08:50 37.627664 -122.384207 294 15ft 0kts
22-Nov-17 08:51 37.627664 -122.384207 294 15ft 0kts
22-Nov-17 08:52 37.627664 -122.384207 294 15ft 0kts
22-Nov-17 08:53 37.627664 -122.384207 294 15ft 0kts
22-Nov-17 08:54 37.627664 -122.384207 294 15ft 0kts
22-Nov-17 08:55 37.627664 -122.384207 294 15ft 0kts
22-Nov-17 08:56 37.627664 -122.384207 294 15ft 0kts
22-Nov-17 08:57 37.627664 -122.384207 294 15ft 0kts
22-Nov-17 08:58 37.627664 -122.384207 294 15ft 0kts
22-Nov-17 08:59 37.627664 -122.384207 294 15ft 0kts
22-Nov-17 09:00 37.627664 -122.384207 294 15ft 0kts
22-Nov-17 09:01 37.627664 -122.384207 294 15ft 0kts
22-Nov-17 09:02 37.627664 -122.384207 294 15ft 0kts
22-Nov-17 09:03 37.627664 -122.384207 294 15ft 0kts
22-Nov-17 09:04 37.627664 -122.384207 294 15ft 0kts
22-Nov-17 09:05 37.627664 -122.384207 294 15ft 0kts
22-Nov-17 09:06 37.627664 -122.384207 294 15ft 0kts
22-Nov-17 09:07 37.627664 -122.384207 294 15ft 0kts
22-Nov-17 09:08 37.627664 -122.384207 294 15ft 0kts
22-Nov-17 09:09 37.627664 -122.384207 294 15ft 0kts
22-Nov-17 09:10 37.627618 -122.384722 238 15ft 5kts
22-Nov-17 09:11 37.626070 -122.383312 118 19ft 14kts
22-Nov-17 09:12 37.624212 -122.378895 117 22ft 12kts
22-Nov-17 09:13 37.622554 -122.374907 117 17ft 2kts
22-Nov-17 09:14 37.622475 -122.374717 118 17ft 2kts
22-Nov-17 09:15 37.618662 -122.365665 118 10ft 28kts
22-Nov-17 09:16 37.615296 -122.357605 118 7ft 12kts
22-Nov-17 09:17 37.614526 -122.356748 187 7ft 0kts
22-Nov-17 09:18 37.614815 -122.360325 296 7ft 68kts
22-Nov-17 09:19 37.643351 -122.401411 350 696ft 210kts
22-Nov-17 09:20 37.678156 -122.349961 74 848ft 210kts
22-Nov-17 09:21 37.697666 -122.282147 69 2328ft 260kts
22-Nov-17 09:22 37.732980 -122.191824 60 3392ft 301kts
22-Nov-17 09:23 37.776340 -122.103576 58 5278ft 301kts
22-Nov-17 09:24 37.820147 -122.017216 58 7229ft 295kts
22-Nov-17 09:25 37.856627 -121.927896 64 9177ft 291kts
22-Nov-17 09:26 37.892310 -121.837978 64 11144ft 289kts
22-Nov-17 09:27 37.927589 -121.748768 64 13103ft 288kts
22-Nov-17 09:28 37.962776 -121.659519 64 15068ft 287kts
22-Nov-17 09:29 37.997651 -121.570801 64 17033ft 284kts
22-Nov-17 09:30 38.030915 -121.485944 64 18932ft 279kts
22-Nov-17 09:31 38.064645 -121.399657 64 20898ft 274kts
22-Nov-17 09:32 38.098349 -121.313134 64 22406ft 314kts
22-Nov-17 09:33 38.137994 -121.211083 64 24363ft 382kts
22-Nov-17 09:34 38.187445 -121.083392 64 26471ft 433kts
22-Nov-17 09:35 38.221606 -120.935793 78 28644ft 455kts
22-Nov-17 09:36 38.247775 -120.782186 78 30780ft 460kts
22-Nov-17 09:37 38.273434 -120.626792 78 32917ft 460kts
22-Nov-17 09:38 38.298881 -120.470608 78 35061ft 458kts
22-Nov-17 09:39 38.323315 -120.319183 79 37146ft 454kts
22-Nov-17 09:40 38.346723 -120.172875 79 40569ft 424kts
22-Nov-17 09:41 38.370274 -120.024256 79 40926ft 464kts
22-Nov-17 09:42 38.394912 -119.867593 79 40910ft 459kts
22-Nov-17 09:43 38.419106 -119.712277 79 40913ft 459kts
22-Nov-17 09:44 38.443201 -119.556161 79 40913ft 459kts
22-Nov-17 09:45 38.466988 -119.400600 79 40913ft 459kts
22-Nov-17 09:46 38.490019 -119.248579 79 40913ft 459kts
22-Nov-17 09:47 38.513566 -119.091702 79 40913ft 459kts
22-Nov-17 09:48 38.537089 -118.933462 79 40913ft 459kts
22-Nov-17 09:49 38.560556 -118.774053 79 40913ft 459kts
22-Nov-17 09:50 38.583897 -118.613910 79 40913ft 459kts
22-Nov-17 09:51 38.606991 -118.453867 79 40913ft 459kts
22-Nov-17 09:52 38.629128 -118.298921 80 40913ft 459kts
22-Nov-17 09:53 38.651830 -118.138419 80 40913ft 459kts
22-Nov-17 09:54 38.674184 -117.978731 80 40913ft 459kts
22-Nov-17 09:55 38.696438 -117.818088 80 40913ft 459kts
22-Nov-17 09:56 38.718467 -117.657382 80 40913ft 459kts
22-Nov-17 09:57 38.740230 -117.496920 80 40913ft 459kts
22-Nov-17 09:58 38.761390 -117.339229 81 40913ft 459kts
22-Nov-17 09:59 38.782732 -117.178494 81 40913ft 459kts
22-Nov-17 10:00 38.803863 -117.017565 81 40913ft 459kts
22-Nov-17 10:01 38.824733 -116.856845 81 40913ft 459kts
22-Nov-17 10:02 38.845360 -116.696217 81 40913ft 459kts
22-Nov-17 10:03 38.865825 -116.535023 81 40913ft 459kts
22-Nov-17 10:04 38.886038 -116.373983 81 40913ft 459kts
22-Nov-17 10:05 38.905836 -116.214467 81 40913ft 459kts
22-Nov-17 10:06 38.925629 -116.053097 81 40913ft 459kts
22-Nov-17 10:07 38.945153 -115.892008 81 40914ft 459kts
22-Nov-17 10:08 38.964526 -115.730230 81 40914ft 459kts
22-Nov-17 10:09 38.983597 -115.569042 81 40914ft 459kts
22-Nov-17 10:10 39.002502 -115.407278 81 40914ft 459kts
22-Nov-17 10:11 39.020747 -115.249280 82 40914ft 459kts
22-Nov-17 10:12 39.039267 -115.086878 82 40914ft 459kts
22-Nov-17 10:13 39.057431 -114.925532 82 40914ft 459kts
22-Nov-17 10:14 39.075485 -114.763079 82 40914ft 459kts
22-Nov-17 10:15 39.093191 -114.601669 82 40914ft 459kts
22-Nov-17 10:16 39.110477 -114.442054 82 40912ft 459kts
22-Nov-17 10:17 39.127536 -114.282429 83 40912ft 459kts
22-Nov-17 10:18 39.144593 -114.120641 83 40912ft 459kts
22-Nov-17 10:19 39.161535 -113.957745 83 40912ft 459kts
22-Nov-17 10:20 39.178193 -113.795341 83 40912ft 459kts
22-Nov-17 10:21 39.194623 -113.632886 83 40912ft 459kts
22-Nov-17 10:22 39.210795 -113.470654 83 40588ft 464kts
22-Nov-17 10:23 39.226852 -113.307202 83 38978ft 477kts
22-Nov-17 10:24 39.243139 -113.138936 83 37833ft 476kts
22-Nov-17 10:25 39.256505 -112.998908 83 36839ft 473kts
22-Nov-17 10:26 39.274616 -112.806353 83 37106ft 428kts
22-Nov-17 10:27 39.286800 -112.674456 83 34750ft 465kts
22-Nov-17 10:28 39.299611 -112.504621 92 31941ft 484kts
22-Nov-17 10:29 39.291931 -112.307391 94 29529ft 476kts
22-Nov-17 10:30 39.283550 -112.139799 94 27431ft 465kts
22-Nov-17 10:31 39.276321 -112.002589 94 25611ft 455kts
22-Nov-17 10:32 39.267670 -111.843001 94 23916ft 430kts
22-Nov-17 10:33 39.258437 -111.677064 94 23905ft 376kts
22-Nov-17 10:34 39.252292 -111.569093 94 23908ft 354kts
22-Nov-17 10:35 39.244640 -111.439143 94 23919ft 379kts
22-Nov-17 10:36 39.236619 -111.302171 95 23916ft 402kts
22-Nov-17 10:37 39.227806 -111.155690 95 23915ft 416kts
22-Nov-17 10:38 39.218577 -111.005742 95 23914ft 425kts
22-Nov-17 10:39 39.208996 -110.853375 95 23918ft 430kts
22-Nov-17 10:40 39.199027 -110.698078 95 22793ft 426kts
22-Nov-17 10:41 39.189341 -110.550236 95 21283ft 405kts
22-Nov-17 10:42 39.179924 -110.409254 95 19774ft 389kts
22-Nov-17 10:43 39.170797 -110.275077 96 18283ft 374kts
22-Nov-17 10:44 39.161750 -110.144253 96 16775ft 361kts
22-Nov-17 10:45 39.152899 -110.018264 96 15267ft 347kts
22-Nov-17 10:46 39.144355 -109.898412 96 14396ft 327kts
22-Nov-17 10:47 39.135987 -109.782868 96 14389ft 326kts
22-Nov-17 10:48 39.127425 -109.666209 96 14304ft 330kts
22-Nov-17 10:49 39.118715 -109.549091 96 14300ft 329kts
22-Nov-17 10:50 39.110118 -109.435030 96 14300ft 329kts
22-Nov-17 10:51 39.101509 -109.322162 96 14862ft 310kts
22-Nov-17 10:52 39.092879 -109.210764 96 14896ft 316kts
22-Nov-17 10:53 39.083464 -109.090839 96 13503ft 355kts
22-Nov-17 10:54 39.073198 -108.961524 96 12054ft 368kts
22-Nov-17 10:55 39.063558 -108.841448 96 11987ft 314kts
22-Nov-17 10:56 39.074252 -108.737072 75 11990ft 286kts
22-Nov-17 10:57 39.095783 -108.642172 74 11991ft 267kts
22-Nov-17 10:58 39.121672 -108.556670 36 11981ft 256kts
22-Nov-17 10:59 39.182201 -108.495475 47 9242ft 307kts
22-Nov-17 11:00 39.220932 -108.410110 101 8060ft 262kts
22-Nov-17 11:01 39.174734 -108.383618 230 7468ft 205kts
22-Nov-17 11:02 39.152134 -108.429900 240 7960ft 131kts
22-Nov-17 11:03 39.131249 -108.489143 241 6244ft 215kts
22-Nov-17 11:04 39.101104 -108.542502 230 5371ft 179kts
22-Nov-17 11:05 39.074520 -108.620911 256 5971ft 273kts
22-Nov-17 11:06 39.101306 -108.709027 329 6600ft 309kts
22-Nov-17 11:07 39.171609 -108.667360 59 6601ft 320kts
22-Nov-17 11:08 39.145115 -108.570371 125 6600ft 308kts
22-Nov-17 11:09 39.133937 -108.498981 36 6575ft 189kts
22-Nov-17 11:10 39.149384 -108.456095 149 6568ft 129kts
22-Nov-17 11:11 39.126922 -108.487411 257 6248ft 201kts
22-Nov-17 11:33 39.119095 -108.521324 127 4837ft 0kts

Navigation Log

Ident Type
Flight plan parsing failed, navigation log unavailable